Nakusp, Canada
Current Conditions -  °F | °C
As of 10:22 PM on Wednesday 28 Jan 2015 (Local Time) from CYRV Reporting Station
Light Rain Light Rain  
Wind Chill: 34°   Ceiling: 1800
Heat Index: 34°   Visibility: 1.7mi
Dew Point: 34°   Wind: 0mph
Humidity: 100%   Direction: NA
Pressure: 30.49"   Gusts: NA
Location:  50.24°N, 117.8°W
Report Text: CYRV 290622Z AUTO 00000KT 1 3/4SM -RA BR SCT003 OVC018 01/01 A3049 RMK VIS VRB 5/8-3 SLP346
Loading
Personal Weather Stations






























Interactive Weather Map New forecast layout! Learn more

10-Day Weather Forecast

Advertisements
Track Severe Weather on mobile